sensor_id;sensor_type;location;lat;lon;timestamp;pressure;altitude;pressure_sealevel;temperature;humidity
64019;BME280;66942;52.138;5.216;2024-02-28T00:00:07;101995.0;;;38.11;9.46
64019;BME280;66942;52.138;5.216;2024-02-28T00:03:24;101993.0;;;37.44;9.77
64019;BME280;66942;52.138;5.216;2024-02-28T00:05:01;101991.0;;;37.39;9.77
64019;BME280;66942;52.138;5.216;2024-02-28T00:06:37;101997.0;;;37.31;9.76
64019;BME280;66942;52.138;5.216;2024-02-28T00:09:49;101992.0;;;37.12;9.83
64019;BME280;66942;52.138;5.216;2024-02-28T00:11:25;101988.0;;;37.11;9.81
64019;BME280;66942;52.138;5.216;2024-02-28T00:13:01;101992.0;;;37.03;9.89
64019;BME280;66942;52.138;5.216;2024-02-28T00:16:17;101986.0;;;37.07;9.78
64019;BME280;66942;52.138;5.216;2024-02-28T00:17:54;101988.0;;;37.07;9.71
64019;BME280;66942;52.138;5.216;2024-02-28T00:19:31;101993.0;;;36.51;10.02
64019;BME280;66942;52.138;5.216;2024-02-28T00:21:07;101992.0;;;36.47;10.02
64019;BME280;66942;52.138;5.216;2024-02-28T00:24:19;101996.0;;;37.25;9.47
64019;BME280;66942;52.138;5.216;2024-02-28T00:25:55;101993.0;;;37.22;9.48
64019;BME280;66942;52.138;5.216;2024-02-28T00:27:31;101992.0;;;37.12;9.52
64019;BME280;66942;52.138;5.216;2024-02-28T00:30:44;101996.0;;;37.25;9.43
64019;BME280;66942;52.138;5.216;2024-02-28T00:32:21;101998.0;;;37.28;9.44
64019;BME280;66942;52.138;5.216;2024-02-28T00:33:57;101999.0;;;37.86;9.05
64019;BME280;66942;52.138;5.216;2024-02-28T00:37:09;101996.0;;;36.99;9.49
64019;BME280;66942;52.138;5.216;2024-02-28T00:38:45;101996.0;;;37.24;9.33
64019;BME280;66942;52.138;5.216;2024-02-28T00:40:21;101995.0;;;36.9;9.53
64019;BME280;66942;52.138;5.216;2024-02-28T00:41:57;101997.0;;;36.79;9.57
64019;BME280;66942;52.138;5.216;2024-02-28T00:45:09;102000.0;;;36.65;9.61
64019;BME280;66942;52.138;5.216;2024-02-28T00:46:45;101993.0;;;37.14;9.28
64019;BME280;66942;52.138;5.216;2024-02-28T00:48:22;101991.0;;;36.56;9.63
64019;BME280;66942;52.138;5.216;2024-02-28T00:51:34;101993.0;;;36.79;9.44
64019;BME280;66942;52.138;5.216;2024-02-28T00:53:10;101988.0;;;36.86;9.44
64019;BME280;66942;52.138;5.216;2024-02-28T00:54:46;101986.0;;;36.96;9.35
64019;BME280;66942;52.138;5.216;2024-02-28T00:57:58;101988.0;;;36.69;9.5
64019;BME280;66942;52.138;5.216;2024-02-28T00:59:34;101992.0;;;36.31;9.65
64019;BME280;66942;52.138;5.216;2024-02-28T01:01:11;101988.0;;;36.67;9.47
64019;BME280;66942;52.138;5.216;2024-02-28T01:02:48;101992.0;;;36.75;9.38
64019;BME280;66942;52.138;5.216;2024-02-28T01:06:00;101988.0;;;36.93;9.27
64019;BME280;66942;52.138;5.216;2024-02-28T01:07:36;101989.0;;;37.18;9.1
64019;BME280;66942;52.138;5.216;2024-02-28T01:09:12;101986.0;;;36.83;9.26
64019;BME280;66942;52.138;5.216;2024-02-28T01:12:24;101994.0;;;36.74;9.31
64019;BME280;66942;52.138;5.216;2024-02-28T01:14:00;101989.0;;;36.33;9.51
64019;BME280;66942;52.138;5.216;2024-02-28T01:15:36;101989.0;;;36.61;9.36
64019;BME280;66942;52.138;5.216;2024-02-28T01:18:51;101987.0;;;37.03;9.09
64019;BME280;66942;52.138;5.216;2024-02-28T01:20:28;101983.0;;;36.81;9.21
64019;BME280;66942;52.138;5.216;2024-02-28T01:22:04;101986.0;;;36.78;9.18
64019;BME280;66942;52.138;5.216;2024-02-28T01:25:16;101988.0;;;36.82;9.18
64019;BME280;66942;52.138;5.216;2024-02-28T01:26:52;101990.0;;;37.29;8.91
64019;BME280;66942;52.138;5.216;2024-02-28T01:28:28;101989.0;;;36.35;9.44
64019;BME280;66942;52.138;5.216;2024-02-28T01:30:06;101988.0;;;36.35;9.46
64019;BME280;66942;52.138;5.216;2024-02-28T01:33:18;101984.0;;;36.24;9.51
64019;BME280;66942;52.138;5.216;2024-02-28T01:34:58;101987.0;;;35.97;9.68
64019;BME280;66942;52.138;5.216;2024-02-28T01:36:34;101980.0;;;36.56;9.31
64019;BME280;66942;52.138;5.216;2024-02-28T01:39:46;101976.0;;;36.31;9.52
64019;BME280;66942;52.138;5.216;2024-02-28T01:41:22;101974.0;;;36.47;9.39
64019;BME280;66942;52.138;5.216;2024-02-28T01:43:02;101973.0;;;36.57;9.31
64019;BME280;66942;52.138;5.216;2024-02-28T01:44:43;101968.0;;;36.86;9.11
64019;BME280;66942;52.138;5.216;2024-02-28T01:48:00;101974.0;;;35.99;9.57
64019;BME280;66942;52.138;5.216;2024-02-28T01:49:38;101973.0;;;36.01;9.53
64019;BME280;66942;52.138;5.216;2024-02-28T01:51:15;101977.0;;;35.67;9.73
64019;BME280;66942;52.138;5.216;2024-02-28T01:54:29;101981.0;;;36.0;9.52
64019;BME280;66942;52.138;5.216;2024-02-28T01:56:05;101974.0;;;36.21;9.39
64019;BME280;66942;52.138;5.216;2024-02-28T01:57:42;101972.0;;;36.44;9.23
64019;BME280;66942;52.138;5.216;2024-02-28T01:59:18;101973.0;;;36.1;9.42
64019;BME280;66942;52.138;5.216;2024-02-28T02:02:32;101977.0;;;35.97;9.5
64019;BME280;66942;52.138;5.216;2024-02-28T02:04:08;101974.0;;;36.17;9.39
64019;BME280;66942;52.138;5.216;2024-02-28T02:05:44;101971.0;;;36.11;9.44
64019;BME280;66942;52.138;5.216;2024-02-28T02:08:56;101969.0;;;36.15;9.38
64019;BME280;66942;52.138;5.216;2024-02-28T02:10:32;101975.0;;;36.12;9.4
64019;BME280;66942;52.138;5.216;2024-02-28T02:12:08;101980.0;;;36.17;9.39
64019;BME280;66942;52.138;5.216;2024-02-28T02:15:23;101980.0;;;36.28;9.34
64019;BME280;66942;52.138;5.216;2024-02-28T02:17:00;101983.0;;;36.53;9.23
64019;BME280;66942;52.138;5.216;2024-02-28T02:18:36;101981.0;;;36.64;9.17
64019;BME280;66942;52.138;5.216;2024-02-28T02:20:16;101981.0;;;36.69;9.16
64019;BME280;66942;52.138;5.216;2024-02-28T02:23:34;101982.0;;;36.82;9.11
64019;BME280;66942;52.138;5.216;2024-02-28T02:25:10;101981.0;;;36.69;9.21
64019;BME280;66942;52.138;5.216;2024-02-28T02:26:46;101980.0;;;36.81;9.19
64019;BME280;66942;52.138;5.216;2024-02-28T02:29:59;101977.0;;;36.82;9.21
64019;BME280;66942;52.138;5.216;2024-02-28T02:31:35;101981.0;;;37.03;9.14
64019;BME280;66942;52.138;5.216;2024-02-28T02:33:11;101980.0;;;36.71;9.31
64019;BME280;66942;52.138;5.216;2024-02-28T02:36:23;101983.0;;;36.64;9.38
64019;BME280;66942;52.138;5.216;2024-02-28T02:37:59;101980.0;;;36.89;9.26
64019;BME280;66942;52.138;5.216;2024-02-28T02:39:35;101984.0;;;36.99;9.24
64019;BME280;66942;52.138;5.216;2024-02-28T02:41:11;101978.0;;;36.97;9.3
64019;BME280;66942;52.138;5.216;2024-02-28T02:44:23;101977.0;;;37.25;9.17
64019;BME280;66942;52.138;5.216;2024-02-28T02:45:59;101978.0;;;37.15;9.25
64019;BME280;66942;52.138;5.216;2024-02-28T02:47:36;101975.0;;;37.15;9.31
64019;BME280;66942;52.138;5.216;2024-02-28T02:50:48;101971.0;;;37.24;9.26
64019;BME280;66942;52.138;5.216;2024-02-28T02:52:24;101970.0;;;37.04;9.4
64019;BME280;66942;52.138;5.216;2024-02-28T02:54:05;101965.0;;;37.1;9.39
64019;BME280;66942;52.138;5.216;2024-02-28T02:57:17;101967.0;;;36.89;9.53
64019;BME280;66942;52.138;5.216;2024-02-28T02:58:53;101968.0;;;37.22;9.34
64019;BME280;66942;52.138;5.216;2024-02-28T03:00:29;101972.0;;;37.4;9.25
64019;BME280;66942;52.138;5.216;2024-02-28T03:02:05;101974.0;;;37.67;9.14
64019;BME280;66942;52.138;5.216;2024-02-28T03:05:18;101973.0;;;37.82;9.08
64019;BME280;66942;52.138;5.216;2024-02-28T03:06:54;101973.0;;;37.83;9.08
64019;BME280;66942;52.138;5.216;2024-02-28T03:08:30;101970.0;;;37.86;9.09
64019;BME280;66942;52.138;5.216;2024-02-28T03:11:42;101972.0;;;37.71;9.19
64019;BME280;66942;52.138;5.216;2024-02-28T03:13:18;101972.0;;;38.57;8.73
64019;BME280;66942;52.138;5.216;2024-02-28T03:14:55;101968.0;;;37.67;9.23
64019;BME280;66942;52.138;5.216;2024-02-28T03:18:08;101962.0;;;37.17;9.56
64019;BME280;66942;52.138;5.216;2024-02-28T03:19:44;101959.0;;;37.47;9.39
64019;BME280;66942;52.138;5.216;2024-02-28T03:21:20;101958.0;;;38.51;8.89
64019;BME280;66942;52.138;5.216;2024-02-28T03:24:32;101958.0;;;38.15;9.07
64019;BME280;66942;52.138;5.216;2024-02-28T03:26:08;101952.0;;;37.47;9.56
64019;BME280;66942;52.138;5.216;2024-02-28T03:27:44;101962.0;;;37.99;9.27
64019;BME280;66942;52.138;5.216;2024-02-28T03:29:20;101963.0;;;38.06;9.27
64019;BME280;66942;52.138;5.216;2024-02-28T03:32:33;101965.0;;;37.99;9.35
64019;BME280;66942;52.138;5.216;2024-02-28T03:34:09;101969.0;;;38.18;9.3
64019;BME280;66942;52.138;5.216;2024-02-28T03:35:45;101971.0;;;38.28;9.26
64019;BME280;66942;52.138;5.216;2024-02-28T03:39:00;101973.0;;;38.35;9.3
64019;BME280;66942;52.138;5.216;2024-02-28T03:40:36;101975.0;;;38.06;9.49
64019;BME280;66942;52.138;5.216;2024-02-28T03:42:12;101971.0;;;38.04;9.56
64019;BME280;66942;52.138;5.216;2024-02-28T03:45:28;101967.0;;;38.31;9.44
64019;BME280;66942;52.138;5.216;2024-02-28T03:47:05;101966.0;;;38.68;9.24
64019;BME280;66942;52.138;5.216;2024-02-28T03:48:41;101970.0;;;38.06;9.61
64019;BME280;66942;52.138;5.216;2024-02-28T03:50:17;101964.0;;;38.24;9.56
64019;BME280;66942;52.138;5.216;2024-02-28T03:53:29;101966.0;;;38.72;9.33
64019;BME280;66942;52.138;5.216;2024-02-28T03:55:05;101967.0;;;38.83;9.31
64019;BME280;66942;52.138;5.216;2024-02-28T03:56:42;101961.0;;;39.15;9.15
64019;BME280;66942;52.138;5.216;2024-02-28T03:59:54;101961.0;;;39.07;9.22
64019;BME280;66942;52.138;5.216;2024-02-28T04:01:30;101962.0;;;38.92;9.33
64019;BME280;66942;52.138;5.216;2024-02-28T04:03:06;101959.0;;;38.99;9.3
64019;BME280;66942;52.138;5.216;2024-02-28T04:06:19;101966.0;;;38.53;9.53
64019;BME280;66942;52.138;5.216;2024-02-28T04:07:55;101969.0;;;38.71;9.49
64019;BME280;66942;52.138;5.216;2024-02-28T04:09:31;101964.0;;;39.39;9.15
64019;BME280;66942;52.138;5.216;2024-02-28T04:11:07;101961.0;;;39.1;9.26
64019;BME280;66942;52.138;5.216;2024-02-28T04:14:19;101967.0;;;38.74;9.48
64019;BME280;66942;52.138;5.216;2024-02-28T04:15:55;101971.0;;;38.67;9.55
64019;BME280;66942;52.138;5.216;2024-02-28T04:17:31;101971.0;;;38.56;9.61
64019;BME280;66942;52.138;5.216;2024-02-28T04:20:44;101975.0;;;38.97;9.38
64019;BME280;66942;52.138;5.216;2024-02-28T04:22:20;101972.0;;;38.35;9.76
64019;BME280;66942;52.138;5.216;2024-02-28T04:23:56;101973.0;;;38.44;9.73
64019;BME280;66942;52.138;5.216;2024-02-28T04:27:08;101980.0;;;38.29;9.78
64019;BME280;66942;52.138;5.216;2024-02-28T04:28:44;101983.0;;;38.49;9.69
64019;BME280;66942;52.138;5.216;2024-02-28T04:30:20;101978.0;;;38.76;9.5
64019;BME280;66942;52.138;5.216;2024-02-28T04:33:33;101973.0;;;38.65;9.6
64019;BME280;66942;52.138;5.216;2024-02-28T04:35:09;101971.0;;;38.46;9.68
64019;BME280;66942;52.138;5.216;2024-02-28T04:36:46;101971.0;;;38.92;9.48
64019;BME280;66942;52.138;5.216;2024-02-28T04:38:22;101974.0;;;38.51;9.67
64019;BME280;66942;52.138;5.216;2024-02-28T04:41:34;101977.0;;;38.71;9.58
64019;BME280;66942;52.138;5.216;2024-02-28T04:43:10;101980.0;;;38.03;9.92
64019;BME280;66942;52.138;5.216;2024-02-28T04:44:46;101981.0;;;37.72;10.21
64019;BME280;66942;52.138;5.216;2024-02-28T04:47:59;101987.0;;;38.39;9.85
64019;BME280;66942;52.138;5.216;2024-02-28T04:49:36;101991.0;;;38.22;10.01
64019;BME280;66942;52.138;5.216;2024-02-28T04:51:15;101991.0;;;38.42;9.86
64019;BME280;66942;52.138;5.216;2024-02-28T04:54:27;101994.0;;;38.08;10.06
64019;BME280;66942;52.138;5.216;2024-02-28T04:56:04;101999.0;;;38.19;10.06
64019;BME280;66942;52.138;5.216;2024-02-28T04:57:39;101999.0;;;38.47;9.86
64019;BME280;66942;52.138;5.216;2024-02-28T04:59:15;102001.0;;;38.81;9.73
64019;BME280;66942;52.138;5.216;2024-02-28T05:02:27;102000.0;;;38.79;9.71
64019;BME280;66942;52.138;5.216;2024-02-28T05:04:04;102000.0;;;38.94;9.66
64019;BME280;66942;52.138;5.216;2024-02-28T05:05:41;102005.0;;;38.39;9.97
64019;BME280;66942;52.138;5.216;2024-02-28T05:08:52;102003.0;;;38.6;9.85
64019;BME280;66942;52.138;5.216;2024-02-28T05:10:28;102002.0;;;38.51;9.89
64019;BME280;66942;52.138;5.216;2024-02-28T05:12:05;101999.0;;;38.71;9.81
64019;BME280;66942;52.138;5.216;2024-02-28T05:15:17;101997.0;;;38.11;10.17
64019;BME280;66942;52.138;5.216;2024-02-28T05:16:53;102000.0;;;38.54;9.94
64019;BME280;66942;52.138;5.216;2024-02-28T05:18:29;101999.0;;;38.86;9.75
64019;BME280;66942;52.138;5.216;2024-02-28T05:21:43;101996.0;;;39.25;9.56
64019;BME280;66942;52.138;5.216;2024-02-28T05:23:20;101999.0;;;38.46;10.0
64019;BME280;66942;52.138;5.216;2024-02-28T05:24:56;102005.0;;;38.67;9.89
64019;BME280;66942;52.138;5.216;2024-02-28T05:26:34;102005.0;;;38.97;9.71
64019;BME280;66942;52.138;5.216;2024-02-28T05:29:46;102002.0;;;38.81;9.81
64019;BME280;66942;52.138;5.216;2024-02-28T05:31:25;101999.0;;;39.28;9.57
64019;BME280;66942;52.138;5.216;2024-02-28T05:33:01;102000.0;;;38.9;9.8
64019;BME280;66942;52.138;5.216;2024-02-28T05:36:14;101997.0;;;39.28;9.59
64019;BME280;66942;52.138;5.216;2024-02-28T05:37:53;101995.0;;;39.46;9.48
64019;BME280;66942;52.138;5.216;2024-02-28T05:39:29;101999.0;;;39.31;9.57
64019;BME280;66942;52.138;5.216;2024-02-28T05:41:05;101996.0;;;39.5;9.47
64019;BME280;66942;52.138;5.216;2024-02-28T05:44:17;101998.0;;;39.31;9.56
64019;BME280;66942;52.138;5.216;2024-02-28T05:45:53;101996.0;;;39.54;9.48
64019;BME280;66942;52.138;5.216;2024-02-28T05:47:29;101994.0;;;39.42;9.53
64019;BME280;66942;52.138;5.216;2024-02-28T05:50:42;101991.0;;;39.35;9.53
64019;BME280;66942;52.138;5.216;2024-02-28T05:52:18;101995.0;;;38.97;9.76
64019;BME280;66942;52.138;5.216;2024-02-28T05:53:54;101995.0;;;39.46;9.51
64019;BME280;66942;52.138;5.216;2024-02-28T05:57:06;101995.0;;;40.03;9.23
64019;BME280;66942;52.138;5.216;2024-02-28T05:58:43;101996.0;;;39.92;9.23
64019;BME280;66942;52.138;5.216;2024-02-28T06:00:19;101997.0;;;40.14;9.19
64019;BME280;66942;52.138;5.216;2024-02-28T06:03:32;102003.0;;;39.67;9.38
64019;BME280;66942;52.138;5.216;2024-02-28T06:05:08;101998.0;;;39.72;9.39
64019;BME280;66942;52.138;5.216;2024-02-28T06:06:44;102001.0;;;39.43;9.53
64019;BME280;66942;52.138;5.216;2024-02-28T06:08:20;102007.0;;;39.15;9.69
64019;BME280;66942;52.138;5.216;2024-02-28T06:11:32;102005.0;;;39.82;9.36
64019;BME280;66942;52.138;5.216;2024-02-28T06:13:08;102001.0;;;39.21;9.71
64019;BME280;66942;52.138;5.216;2024-02-28T06:14:44;102005.0;;;39.28;9.67
64019;BME280;66942;52.138;5.216;2024-02-28T06:17:56;102005.0;;;40.11;9.19
64019;BME280;66942;52.138;5.216;2024-02-28T06:19:32;102007.0;;;39.31;9.65
64019;BME280;66942;52.138;5.216;2024-02-28T06:21:09;102009.0;;;39.51;9.52
64019;BME280;66942;52.138;5.216;2024-02-28T06:24:21;102005.0;;;39.43;9.59
64019;BME280;66942;52.138;5.216;2024-02-28T06:25:57;102007.0;;;39.11;9.75
64019;BME280;66942;52.138;5.216;2024-02-28T06:27:33;102011.0;;;40.37;9.1
64019;BME280;66942;52.138;5.216;2024-02-28T06:29:09;102011.0;;;39.96;9.31
64019;BME280;66942;52.138;5.216;2024-02-28T06:32:23;102012.0;;;39.35;9.63
64019;BME280;66942;52.138;5.216;2024-02-28T06:33:59;102014.0;;;39.65;9.49
64019;BME280;66942;52.138;5.216;2024-02-28T06:35:35;102014.0;;;39.6;9.57
64019;BME280;66942;52.138;5.216;2024-02-28T06:38:50;102015.0;;;39.6;9.55
64019;BME280;66942;52.138;5.216;2024-02-28T06:40:26;102021.0;;;39.81;9.49
64019;BME280;66942;52.138;5.216;2024-02-28T06:42:02;102025.0;;;40.03;9.33
64019;BME280;66942;52.138;5.216;2024-02-28T06:45:14;102034.0;;;40.01;9.35
64019;BME280;66942;52.138;5.216;2024-02-28T06:46:50;102037.0;;;39.92;9.44
64019;BME280;66942;52.138;5.216;2024-02-28T06:48:27;102035.0;;;39.76;9.52
64019;BME280;66942;52.138;5.216;2024-02-28T06:51:42;102031.0;;;40.24;9.24
64019;BME280;66942;52.138;5.216;2024-02-28T06:53:19;102042.0;;;39.94;9.4
64019;BME280;66942;52.138;5.216;2024-02-28T06:54:56;102048.0;;;40.18;9.32
64019;BME280;66942;52.138;5.216;2024-02-28T06:56:32;102057.0;;;40.07;9.36
64019;BME280;66942;52.138;5.216;2024-02-28T06:59:44;102058.0;;;39.71;9.52
64019;BME280;66942;52.138;5.216;2024-02-28T07:01:23;102061.0;;;40.04;9.43
64019;BME280;66942;52.138;5.216;2024-02-28T07:02:59;102058.0;;;39.87;9.5
64019;BME280;66942;52.138;5.216;2024-02-28T07:06:11;102055.0;;;39.57;9.71
64019;BME280;66942;52.138;5.216;2024-02-28T07:07:47;102060.0;;;39.97;9.5
64019;BME280;66942;52.138;5.216;2024-02-28T07:09:23;102058.0;;;39.79;9.64
64019;BME280;66942;52.138;5.216;2024-02-28T07:11:00;102061.0;;;39.76;9.64
64019;BME280;66942;52.138;5.216;2024-02-28T07:14:12;102062.0;;;39.69;9.73
64019;BME280;66942;52.138;5.216;2024-02-28T07:15:48;102068.0;;;40.15;9.49
64019;BME280;66942;52.138;5.216;2024-02-28T07:17:24;102058.0;;;40.78;9.17
64019;BME280;66942;52.138;5.216;2024-02-28T07:20:37;102060.0;;;41.3;8.92
64019;BME280;66942;52.138;5.216;2024-02-28T07:22:13;102064.0;;;41.01;9.05
64019;BME280;66942;52.138;5.216;2024-02-28T07:23:49;102056.0;;;41.11;9.06
64019;BME280;66942;52.138;5.216;2024-02-28T07:27:02;102057.0;;;40.43;9.47
64019;BME280;66942;52.138;5.216;2024-02-28T07:28:38;102059.0;;;40.36;9.5
64019;BME280;66942;52.138;5.216;2024-02-28T07:30:14;102063.0;;;41.27;9.02
64019;BME280;66942;52.138;5.216;2024-02-28T07:33:26;102064.0;;;40.42;9.55
64019;BME280;66942;52.138;5.216;2024-02-28T07:35:02;102074.0;;;40.62;9.43
64019;BME280;66942;52.138;5.216;2024-02-28T07:36:38;102083.0;;;40.24;9.64
64019;BME280;66942;52.138;5.216;2024-02-28T07:38:14;102087.0;;;40.22;9.65
64019;BME280;66942;52.138;5.216;2024-02-28T07:41:27;102090.0;;;40.39;9.63
64019;BME280;66942;52.138;5.216;2024-02-28T07:43:04;102087.0;;;40.83;9.42
64019;BME280;66942;52.138;5.216;2024-02-28T07:44:40;102093.0;;;41.01;9.3
64019;BME280;66942;52.138;5.216;2024-02-28T07:47:52;102095.0;;;41.99;8.78
64019;BME280;66942;52.138;5.216;2024-02-28T07:49:28;102096.0;;;41.67;8.96
64019;BME280;66942;52.138;5.216;2024-02-28T07:51:04;102090.0;;;41.34;9.13
64019;BME280;66942;52.138;5.216;2024-02-28T07:54:16;102092.0;;;41.84;8.86
64019;BME280;66942;52.138;5.216;2024-02-28T07:55:52;102096.0;;;42.15;8.73
64019;BME280;66942;52.138;5.216;2024-02-28T07:57:30;102100.0;;;40.94;9.3
64019;BME280;66942;52.138;5.216;2024-02-28T07:59:07;102105.0;;;41.01;9.34
64019;BME280;66942;52.138;5.216;2024-02-28T08:02:20;102105.0;;;41.34;9.1
64019;BME280;66942;52.138;5.216;2024-02-28T08:03:56;102103.0;;;40.99;9.33
64019;BME280;66942;52.138;5.216;2024-02-28T08:05:32;102106.0;;;41.4;9.18
64019;BME280;66942;52.138;5.216;2024-02-28T08:08:44;102109.0;;;41.26;9.23
64019;BME280;66942;52.138;5.216;2024-02-28T08:10:20;102106.0;;;42.04;8.77
64019;BME280;66942;52.138;5.216;2024-02-28T08:11:56;102108.0;;;41.98;8.8
64019;BME280;66942;52.138;5.216;2024-02-28T08:15:09;102109.0;;;41.8;8.88
64019;BME280;66942;52.138;5.216;2024-02-28T08:16:46;102117.0;;;41.19;9.17
64019;BME280;66942;52.138;5.216;2024-02-28T08:18:22;102116.0;;;41.72;8.92
64019;BME280;66942;52.138;5.216;2024-02-28T08:21:34;102123.0;;;41.44;9.08
64019;BME280;66942;52.138;5.216;2024-02-28T08:23:10;102125.0;;;41.4;9.1
64019;BME280;66942;52.138;5.216;2024-02-28T08:24:46;102117.0;;;41.65;9.05
64019;BME280;66942;52.138;5.216;2024-02-28T08:26:23;102121.0;;;41.39;9.18
64019;BME280;66942;52.138;5.216;2024-02-28T08:29:35;102118.0;;;41.53;9.23
64019;BME280;66942;52.138;5.216;2024-02-28T08:31:12;102124.0;;;41.82;8.97
64019;BME280;66942;52.138;5.216;2024-02-28T08:32:48;102123.0;;;41.81;8.98
64019;BME280;66942;52.138;5.216;2024-02-28T08:36:00;102128.0;;;41.67;9.16
64019;BME280;66942;52.138;5.216;2024-02-28T08:37:38;102130.0;;;42.05;8.91
64019;BME280;66942;52.138;5.216;2024-02-28T08:39:14;102128.0;;;42.0;8.93
64019;BME280;66942;52.138;5.216;2024-02-28T08:42:27;102138.0;;;41.23;9.35
64019;BME280;66942;52.138;5.216;2024-02-28T08:44:03;102142.0;;;41.43;9.17
64019;BME280;66942;52.138;5.216;2024-02-28T08:45:39;102140.0;;;41.54;9.06
64019;BME280;66942;52.138;5.216;2024-02-28T08:47:16;102133.0;;;41.66;9.05
64019;BME280;66942;52.138;5.216;2024-02-28T08:50:28;102135.0;;;41.42;9.17
64019;BME280;66942;52.138;5.216;2024-02-28T08:52:04;102136.0;;;41.39;9.23
64019;BME280;66942;52.138;5.216;2024-02-28T08:53:40;102130.0;;;41.58;9.14
64019;BME280;66942;52.138;5.216;2024-02-28T08:56:52;102124.0;;;41.5;9.07
64019;BME280;66942;52.138;5.216;2024-02-28T08:58:28;102130.0;;;41.23;9.35
64019;BME280;66942;52.138;5.216;2024-02-28T09:00:05;102131.0;;;41.42;9.41
64019;BME280;66942;52.138;5.216;2024-02-28T09:03:18;102130.0;;;41.69;9.21
64019;BME280;66942;52.138;5.216;2024-02-28T09:04:54;102127.0;;;41.81;9.14
64019;BME280;66942;52.138;5.216;2024-02-28T09:06:31;102128.0;;;42.46;8.8
64019;BME280;66942;52.138;5.216;2024-02-28T09:09:44;102131.0;;;41.97;9.03
64019;BME280;66942;52.138;5.216;2024-02-28T09:11:21;102130.0;;;42.55;8.9
64019;BME280;66942;52.138;5.216;2024-02-28T09:12:57;102119.0;;;42.3;8.92
64019;BME280;66942;52.138;5.216;2024-02-28T09:14:33;102115.0;;;42.42;8.96
64019;BME280;66942;52.138;5.216;2024-02-28T09:17:45;102117.0;;;42.82;8.81
64019;BME280;66942;52.138;5.216;2024-02-28T09:19:21;102116.0;;;42.93;8.68
64019;BME280;66942;52.138;5.216;2024-02-28T09:20:58;102118.0;;;42.23;8.81
64019;BME280;66942;52.138;5.216;2024-02-28T09:24:11;102118.0;;;42.11;8.93
64019;BME280;66942;52.138;5.216;2024-02-28T09:25:48;102120.0;;;43.48;8.42
64019;BME280;66942;52.138;5.216;2024-02-28T09:27:24;102122.0;;;43.0;8.59
64019;BME280;66942;52.138;5.216;2024-02-28T09:30:36;102128.0;;;42.97;8.63
64019;BME280;66942;52.138;5.216;2024-02-28T09:32:12;102130.0;;;43.19;8.32
64019;BME280;66942;52.138;5.216;2024-02-28T09:33:48;102130.0;;;43.18;8.48
64019;BME280;66942;52.138;5.216;2024-02-28T09:35:24;102128.0;;;43.03;8.53
64019;BME280;66942;52.138;5.216;2024-02-28T09:38:37;102127.0;;;42.76;8.44
64019;BME280;66942;52.138;5.216;2024-02-28T09:40:13;102128.0;;;43.34;8.33
64019;BME280;66942;52.138;5.216;2024-02-28T09:41:49;102125.0;;;43.41;8.38
64019;BME280;66942;52.138;5.216;2024-02-28T09:45:08;102127.0;;;42.88;8.56
64019;BME280;66942;52.138;5.216;2024-02-28T09:46:45;102130.0;;;42.86;8.35
64019;BME280;66942;52.138;5.216;2024-02-28T09:48:22;102136.0;;;43.54;8.2
64019;BME280;66942;52.138;5.216;2024-02-28T09:51:37;102142.0;;;44.06;8.06
64019;BME280;66942;52.138;5.216;2024-02-28T09:53:14;102147.0;;;43.84;8.16
64019;BME280;66942;52.138;5.216;2024-02-28T09:54:50;102147.0;;;43.76;8.4
64019;BME280;66942;52.138;5.216;2024-02-28T09:56:27;102145.0;;;43.52;8.35
64019;BME280;66942;52.138;5.216;2024-02-28T09:59:41;102144.0;;;42.85;8.56
64019;BME280;66942;52.138;5.216;2024-02-28T10:01:19;102145.0;;;42.98;8.64
64019;BME280;66942;52.138;5.216;2024-02-28T10:02:57;102155.0;;;43.52;8.57
64019;BME280;66942;52.138;5.216;2024-02-28T10:06:12;102162.0;;;43.82;8.43
64019;BME280;66942;52.138;5.216;2024-02-28T10:07:49;102165.0;;;43.79;8.31
64019;BME280;66942;52.138;5.216;2024-02-28T10:09:26;102163.0;;;43.77;8.34
64019;BME280;66942;52.138;5.216;2024-02-28T10:11:02;102161.0;;;43.85;8.28
64019;BME280;66942;52.138;5.216;2024-02-28T10:14:17;102149.0;;;43.51;8.44
64019;BME280;66942;52.138;5.216;2024-02-28T10:15:54;102152.0;;;43.82;8.26
64019;BME280;66942;52.138;5.216;2024-02-28T10:17:30;102138.0;;;42.5;8.8
64019;BME280;66942;52.138;5.216;2024-02-28T10:20:42;102144.0;;;44.19;8.17
64019;BME280;66942;52.138;5.216;2024-02-28T10:22:18;102140.0;;;44.41;8.02
64019;BME280;66942;52.138;5.216;2024-02-28T10:23:57;102139.0;;;44.31;8.14
64019;BME280;66942;52.138;5.216;2024-02-28T10:27:18;102132.0;;;44.76;8.09
64019;BME280;66942;52.138;5.216;2024-02-28T10:28:54;102131.0;;;44.39;8.27
64019;BME280;66942;52.138;5.216;2024-02-28T10:30:30;102130.0;;;45.0;8.03
64019;BME280;66942;52.138;5.216;2024-02-28T10:32:06;102133.0;;;45.08;8.01
64019;BME280;66942;52.138;5.216;2024-02-28T10:35:18;102132.0;;;45.05;7.86
64019;BME280;66942;52.138;5.216;2024-02-28T10:36:56;102140.0;;;45.12;7.96
64019;BME280;66942;52.138;5.216;2024-02-28T10:38:32;102132.0;;;45.26;7.78
64019;BME280;66942;52.138;5.216;2024-02-28T10:41:47;102125.0;;;46.51;7.19
64019;BME280;66942;52.138;5.216;2024-02-28T10:43:27;102125.0;;;46.2;7.29
64019;BME280;66942;52.138;5.216;2024-02-28T10:45:05;102125.0;;;45.72;7.53
64019;BME280;66942;52.138;5.216;2024-02-28T10:46:49;102130.0;;;45.14;7.72
64019;BME280;66942;52.138;5.216;2024-02-28T10:50:02;102125.0;;;44.22;8.06
64019;BME280;66942;52.138;5.216;2024-02-28T10:51:39;102130.0;;;44.87;7.81
64019;BME280;66942;52.138;5.216;2024-02-28T10:53:32;102130.0;;;44.97;7.84
64019;BME280;66942;52.138;5.216;2024-02-28T10:55:13;102128.0;;;45.68;7.56
64019;BME280;66942;52.138;5.216;2024-02-28T10:58:33;102124.0;;;45.64;7.71
64019;BME280;66942;52.138;5.216;2024-02-28T11:00:12;102127.0;;;45.78;7.57
64019;BME280;66942;52.138;5.216;2024-02-28T11:01:49;102121.0;;;45.17;7.76
64019;BME280;66942;52.138;5.216;2024-02-28T11:03:26;102119.0;;;44.61;8.06
64019;BME280;66942;52.138;5.216;2024-02-28T11:06:48;102120.0;;;45.29;7.84
64019;BME280;66942;52.138;5.216;2024-02-28T11:08:29;102124.0;;;45.6;7.65
64019;BME280;66942;52.138;5.216;2024-02-28T11:10:05;102124.0;;;44.34;8.24
64019;BME280;66942;52.138;5.216;2024-02-28T11:11:41;102127.0;;;45.01;8.17
64019;BME280;66942;52.138;5.216;2024-02-28T11:14:58;102120.0;;;44.79;8.27